Time;durP1;ratioP1;P1;durP2;ratioP2;P2;SDS_P1;SDS_P2;PMS_P1;PMS_P2;Temp;Humidity;BMP_temperature;BMP_pressure;BME280_temperature;BME280_humidity;BME280_pressure;Samples;Min_cycle;Max_cycle;Signal;HPM_P1;HPM_P2
2023/02/01 00:02:03;;;;;;;12.97;3.73;;;;;;;2.70;100.00;100206.78;4995299;28;20118;-81
2023/02/01 00:04:30;;;;;;;15.23;3.07;;;;;;;2.79;100.00;100214.66;4996039;28;20046;-80
2023/02/01 00:06:57;;;;;;;14.13;2.93;;;;;;;2.76;100.00;100212.00;4957109;28;20404;-80
2023/02/01 00:09:23;;;;;;;13.47;3.07;;;;;;;2.70;100.00;100210.25;4991105;28;20034;-80
2023/02/01 00:11:50;;;;;;;9.57;3.77;;;;;;;2.76;100.00;100199.81;4992788;28;20043;-81
2023/02/01 00:14:17;;;;;;;15.67;3.33;;;;;;;2.61;100.00;100201.53;4961687;28;20053;-81
2023/02/01 00:16:43;;;;;;;8.80;3.37;;;;;;;2.65;100.00;100206.75;4970699;28;20042;-81
2023/02/01 00:19:14;;;;;;;9.63;3.00;;;;;;;2.61;100.00;100199.78;4966005;28;20052;-80
2023/02/01 00:21:41;;;;;;;16.10;4.30;;;;;;;2.58;100.00;100202.38;4976805;28;20031;-80
2023/02/01 00:24:09;;;;;;;15.77;3.43;;;;;;;2.56;100.00;100204.09;4997683;28;20046;-81
2023/02/01 00:26:38;;;;;;;10.87;3.10;;;;;;;2.60;100.00;100207.59;4979070;28;20041;-82
2023/02/01 00:29:11;;;;;;;11.93;3.00;;;;;;;2.49;100.00;100200.59;4964355;28;20053;-81
2023/02/01 00:31:37;;;;;;;13.67;3.97;;;;;;;2.61;100.00;100194.56;4980047;28;20039;-81
2023/02/01 00:34:05;;;;;;;9.33;3.27;;;;;;;2.56;100.00;100211.06;4996857;28;20042;-81
2023/02/01 00:36:31;;;;;;;8.57;3.20;;;;;;;2.57;100.00;100202.38;4994872;28;20047;-80
2023/02/01 00:38:58;;;;;;;9.63;3.23;;;;;;;2.59;100.00;100203.22;4971509;28;20450;-82
2023/02/01 00:41:25;;;;;;;9.57;3.20;;;;;;;2.53;100.00;100207.56;4988802;28;20464;-81
2023/02/01 00:43:52;;;;;;;14.40;3.30;;;;;;;2.57;100.00;100203.22;4978877;28;20062;-80
2023/02/01 00:46:19;;;;;;;13.00;3.73;;;;;;;2.53;100.00;100202.38;4962740;28;20049;-81
2023/02/01 00:48:46;;;;;;;12.23;3.70;;;;;;;2.56;100.00;100196.28;4978997;28;20073;-81
2023/02/01 00:51:19;;;;;;;13.40;3.30;;;;;;;2.54;100.00;100203.22;4979027;28;20076;-81
2023/02/01 00:53:45;;;;;;;17.93;4.43;;;;;;;2.59;100.00;100200.63;4958428;28;20046;-79
2023/02/01 00:56:14;;;;;;;17.40;3.63;;;;;;;2.59;100.00;100211.94;4992738;28;20054;-81
2023/02/01 00:58:41;;;;;;;12.37;3.03;;;;;;;2.55;100.00;100210.19;4977847;28;20054;-80
2023/02/01 01:01:18;;;;;;;10.43;3.00;;;;;;;2.59;100.00;100203.22;4991333;28;20118;-80
2023/02/01 01:03:49;;;;;;;11.75;3.80;;;;;;;2.71;100.00;100201.56;4977058;28;20034;-81
2023/02/01 01:06:18;;;;;;;20.40;5.83;;;;;;;2.64;100.00;100204.13;4993047;28;20485;-81
2023/02/01 01:08:45;;;;;;;14.40;4.03;;;;;;;2.70;100.00;100197.22;4980369;28;20042;-82
2023/02/01 01:11:18;;;;;;;12.47;3.40;;;;;;;2.70;100.00;100205.03;4964807;28;20078;-82
2023/02/01 01:13:49;;;;;;;14.43;4.23;;;;;;;2.73;100.00;100199.81;4981910;28;20424;-83
2023/02/01 01:16:17;;;;;;;14.13;3.10;;;;;;;2.72;100.00;100203.31;4980728;28;20072;-82
2023/02/01 01:18:44;;;;;;;8.80;3.10;;;;;;;2.80;100.00;100213.78;4979630;28;20947;-82
2023/02/01 01:21:13;;;;;;;14.47;3.70;;;;;;;2.88;100.00;100214.66;4959374;28;20046;-83
2023/02/01 01:23:40;;;;;;;18.90;4.90;;;;;;;2.86;100.00;100220.72;4975101;28;20066;-82
2023/02/01 01:26:08;;;;;;;10.50;3.37;;;;;;;2.88;100.00;100217.28;4975860;28;20039;-83
2023/02/01 01:28:35;;;;;;;14.17;4.80;;;;;;;2.86;100.00;100215.50;4964380;28;20049;-82
2023/02/01 01:31:02;;;;;;;10.97;3.17;;;;;;;2.85;100.00;100219.00;4966593;28;20041;-83
2023/02/01 01:33:29;;;;;;;11.80;3.37;;;;;;;2.94;100.00;100213.81;4964398;28;20069;-82
2023/02/01 01:35:56;;;;;;;12.80;2.67;;;;;;;2.92;100.00;100215.53;4958422;28;20106;-81
2023/02/01 01:38:22;;;;;;;18.43;4.00;;;;;;;2.89;100.00;100211.19;4986526;28;20041;-83
2023/02/01 01:40:49;;;;;;;12.47;3.07;;;;;;;2.95;100.00;100198.19;4977376;28;20462;-80
2023/02/01 01:43:20;;;;;;;11.47;3.50;;;;;;;2.97;100.00;100196.44;4976164;28;20050;-81
2023/02/01 01:45:48;;;;;;;10.10;4.17;;;;;;;2.98;100.00;100203.38;4977720;28;20042;-80
2023/02/01 01:48:23;;;;;;;11.83;2.93;;;;;;;2.96;100.00;100199.03;4977644;28;20043;-82
2023/02/01 01:50:52;;;;;;;9.32;3.58;;;;;;;2.93;100.00;100193.78;4973619;28;20038;-81
2023/02/01 01:53:24;;;;;;;14.70;3.83;;;;;;;2.93;100.00;100193.78;4976459;28;20042;-82
2023/02/01 01:55:52;;;;;;;6.33;2.90;;;;;;;2.96;100.00;100192.09;4975454;28;20097;-81
2023/02/01 01:58:22;;;;;;;9.87;3.17;;;;;;;2.96;100.00;100186.88;4985402;28;20041;-81
2023/02/01 02:00:48;;;;;;;11.60;2.83;;;;;;;3.01;100.00;100207.75;4975296;28;20042;-81
2023/02/01 02:03:24;;;;;;;12.60;3.10;;;;;;;2.96;100.00;100201.66;4959218;28;20069;-81
2023/02/01 02:05:52;;;;;;;9.43;3.90;;;;;;;2.94;100.00;100185.97;4991214;28;20066;-81
2023/02/01 02:08:20;;;;;;;10.63;3.13;;;;;;;2.91;100.00;100198.16;4958679;28;20046;-81
2023/02/01 02:10:59;;;;;;;7.00;2.53;;;;;;;2.89;100.00;100194.66;4990418;28;20042;-81
2023/02/01 02:13:34;;;;;;;8.13;2.70;;;;;;;2.89;100.00;100194.66;4959218;28;20041;-81
2023/02/01 02:16:07;;;;;;;11.60;3.20;;;;;;;2.92;100.00;100195.53;4975168;28;20553;-81
2023/02/01 02:18:59;;;;;;;5.32;2.60;;;;;;;2.99;100.00;100199.91;4989799;28;20112;-81
2023/02/01 02:21:41;;;;;;;9.90;2.60;;;;;;;2.98;100.00;100192.94;4975234;28;20053;-82
2023/02/01 02:24:36;;;;;;;10.20;3.00;;;;;;;2.94;100.00;100182.50;4974082;28;20492;-81
2023/02/01 02:27:24;;;;;;;5.40;2.50;;;;;;;2.85;100.00;100180.72;4973194;28;20499;-82
2023/02/01 02:30:28;;;;;;;4.17;1.90;;;;;;;2.81;100.00;100177.25;4975646;28;20053;-81
2023/02/01 02:33:20;;;;;;;4.57;2.03;;;;;;;2.80;100.00;100170.28;4974780;28;20045;-81
2023/02/01 02:35:59;;;;;;;10.50;2.87;;;;;;;2.73;100.00;100165.91;4991266;28;20499;-81
2023/02/01 02:38:30;;;;;;;6.33;2.20;;;;;;;2.74;100.00;100169.41;4975037;28;20042;-81
2023/02/01 02:55:37;;;;;;;9.73;3.37;;;;;;;2.54;100.00;100159.78;4969912;28;20088;-80
2023/02/01 03:06:24;;;;;;;13.03;3.20;;;;;;;2.63;100.00;100151.09;4975389;28;20047;-80
2023/02/01 03:08:53;;;;;;;9.93;3.10;;;;;;;2.59;100.00;100141.53;4982907;28;20046;-81
2023/02/01 03:11:21;;;;;;;10.33;3.60;;;;;;;2.55;100.00;100142.38;4962697;28;20054;-81
2023/02/01 03:13:58;;;;;;;10.37;3.17;;;;;;;2.60;100.00;100137.16;4988784;28;20031;-81
2023/02/01 03:16:39;;;;;;;9.27;3.40;;;;;;;2.63;100.00;100137.19;4958067;28;20076;-83
2023/02/01 03:19:10;;;;;;;12.73;3.33;;;;;;;2.59;100.00;100130.22;4984990;28;20043;-81
2023/02/01 03:21:49;;;;;;;9.47;3.40;;;;;;;2.54;100.00;100122.41;4961374;28;20087;-81
2023/02/01 03:24:19;;;;;;;12.13;3.47;;;;;;;2.51;100.00;100127.59;4955805;28;20065;-82
2023/02/01 03:26:57;;;;;;;15.10;4.77;;;;;;;2.63;100.00;100119.81;5001567;28;20054;-81
2023/02/01 03:29:28;;;;;;;13.97;4.07;;;;;;;2.62;100.00;100128.50;4978424;28;20046;-80
2023/02/01 03:31:55;;;;;;;19.03;3.77;;;;;;;2.78;100.00;100111.16;4968525;28;20553;-80
2023/02/01 03:34:22;;;;;;;10.33;3.53;;;;;;;2.86;100.00;100108.53;4961746;28;20129;-81
2023/02/01 03:36:52;;;;;;;15.50;4.97;;;;;;;2.79;100.00;100111.16;4993260;28;20049;-80
2023/02/01 03:39:24;;;;;;;12.73;3.47;;;;;;;2.79;100.00;100099.88;4973271;28;20469;-81
2023/02/01 03:41:53;;;;;;;12.13;3.37;;;;;;;2.88;100.00;100099.88;4958044;28;20073;-81
2023/02/01 03:44:24;;;;;;;15.83;3.47;;;;;;;2.86;100.00;100093.78;4982855;28;20046;-81
2023/02/01 03:47:07;;;;;;;17.13;4.33;;;;;;;2.80;100.00;100102.47;4961128;28;20043;-80
2023/02/01 03:49:41;;;;;;;10.90;2.90;;;;;;;2.74;100.00;100097.22;4978228;28;20038;-81
2023/02/01 03:52:13;;;;;;;13.60;3.45;;;;;;;2.76;100.00;100094.63;4975641;28;20045;-80
2023/02/01 03:54:40;;;;;;;13.57;3.50;;;;;;;2.81;100.00;100093.78;4993949;28;20030;-80
2023/02/01 03:57:10;;;;;;;7.73;3.53;;;;;;;2.80;100.00;100092.03;4973950;28;20042;-80
2023/02/01 03:59:40;;;;;;;14.33;3.47;;;;;;;2.86;100.00;100090.28;4963954;28;20043;-80
2023/02/01 04:02:07;;;;;;;10.03;3.27;;;;;;;2.88;100.00;100091.19;4996208;28;20042;-80
2023/02/01 04:04:34;;;;;;;15.90;3.67;;;;;;;2.82;100.00;100090.28;4996803;28;20104;-81
2023/02/01 04:07:01;;;;;;;9.80;3.23;;;;;;;2.75;100.00;100093.75;5001790;28;20053;-80
2023/02/01 04:09:28;;;;;;;10.77;3.10;;;;;;;2.74;100.00;100080.72;4980423;28;20039;-81
2023/02/01 04:11:54;;;;;;;18.87;3.87;;;;;;;2.68;100.00;100081.56;4996552;28;20049;-81
2023/02/01 04:14:21;;;;;;;12.87;3.43;;;;;;;2.75;100.00;100069.41;4996459;28;20034;-81
2023/02/01 04:16:48;;;;;;;14.17;3.70;;;;;;;2.81;100.00;100079.84;4976711;28;20385;-81
2023/02/01 04:19:14;;;;;;;13.53;4.40;;;;;;;2.69;100.00;100077.22;4993561;28;20484;-81
2023/02/01 04:21:41;;;;;;;15.53;3.70;;;;;;;2.71;100.00;100072.91;4981276;28;20591;-79
2023/02/01 04:24:08;;;;;;;11.40;3.80;;;;;;;2.68;100.00;100078.09;4980378;28;20034;-80
2023/02/01 04:26:35;;;;;;;14.43;3.63;;;;;;;2.69;100.00;100065.06;4979907;28;20113;-79
2023/02/01 04:29:02;;;;;;;12.10;3.70;;;;;;;2.67;100.00;100074.59;4979591;28;20054;-82
2023/02/01 04:31:28;;;;;;;13.60;4.40;;;;;;;2.70;100.00;100066.81;4962776;28;20050;-82
2023/02/01 04:33:57;;;;;;;13.20;3.70;;;;;;;2.72;100.00;100056.38;4963463;28;20034;-81
2023/02/01 04:36:24;;;;;;;12.20;3.20;;;;;;;2.77;100.00;100071.13;4995984;28;20050;-81
2023/02/01 04:38:53;;;;;;;13.97;3.70;;;;;;;2.79;100.00;100061.59;4995521;28;20133;-80
2023/02/01 04:41:20;;;;;;;18.70;4.17;;;;;;;2.79;100.00;100061.59;4995026;28;20046;-79
2023/02/01 04:43:47;;;;;;;16.97;4.03;;;;;;;2.81;100.00;100061.59;4980405;28;20096;-80
2023/02/01 04:46:13;;;;;;;15.00;3.70;;;;;;;2.75;100.00;100062.44;4989153;28;20053;-80
2023/02/01 04:48:40;;;;;;;13.90;3.77;;;;;;;2.77;100.00;100065.06;4976023;28;20070;-80
2023/02/01 04:51:07;;;;;;;21.20;4.83;;;;;;;2.72;100.00;100056.38;4957758;28;20114;-79
2023/02/01 04:53:34;;;;;;;18.37;4.67;;;;;;;2.73;100.00;100061.59;4994051;28;20053;-80
2023/02/01 04:56:01;;;;;;;12.33;3.80;;;;;;;2.71;100.00;100058.13;4955461;28;20053;-80
2023/02/01 04:58:27;;;;;;;21.50;4.57;;;;;;;2.74;100.00;100060.72;4971715;28;20045;-79
2023/02/01 05:00:54;;;;;;;11.67;3.60;;;;;;;2.84;100.00;100053.75;4971528;28;20043;-80
2023/02/01 05:03:21;;;;;;;14.00;4.20;;;;;;;2.87;100.00;100042.50;4982003;28;20030;-80
2023/02/01 05:05:48;;;;;;;13.80;4.33;;;;;;;2.93;100.00;100042.47;4983563;28;20100;-80
2023/02/01 05:08:15;;;;;;;15.60;3.93;;;;;;;2.95;100.00;100043.38;4965062;28;20047;-80
2023/02/01 05:10:42;;;;;;;20.90;4.93;;;;;;;2.93;100.00;100050.28;4986949;28;20046;-80
2023/02/01 05:15:55;;;;;;;15.90;5.30;;;;;;;3.00;100.00;100057.25;4982573;28;20058;-80
2023/02/01 05:18:21;;;;;;;12.90;4.13;;;;;;;3.03;100.00;100049.44;4987994;28;20064;-82
2023/02/01 05:20:48;;;;;;;24.47;4.67;;;;;;;3.02;100.00;100055.50;4983781;28;20396;-81
2023/02/01 05:23:15;;;;;;;19.53;4.83;;;;;;;3.02;100.00;100060.72;4986772;28;20030;-81
2023/02/01 05:25:41;;;;;;;14.60;5.23;;;;;;;3.05;100.00;100056.41;4986593;28;20101;-81
2023/02/01 05:28:08;;;;;;;13.20;4.53;;;;;;;3.03;100.00;100060.75;4978424;28;20467;-81
2023/02/01 05:30:35;;;;;;;20.63;4.57;;;;;;;3.01;100.00;100049.44;4975292;28;20042;-81
2023/02/01 05:33:02;;;;;;;15.80;4.57;;;;;;;2.99;100.00;100040.75;4978288;28;20133;-82
2023/02/01 05:35:29;;;;;;;14.13;5.40;;;;;;;2.97;100.00;100039.00;4978548;28;20562;-82
2023/02/01 05:37:56;;;;;;;13.77;3.50;;;;;;;2.99;100.00;100035.50;4989497;28;20586;-81
2023/02/01 05:40:22;;;;;;;14.07;4.63;;;;;;;3.00;100.00;100034.66;5062518;23;20013;-82
2023/02/01 05:42:50;;;;;;;13.03;4.20;;;;;;;3.01;100.00;100044.22;4980583;28;20037;-82
2023/02/01 05:45:16;;;;;;;17.50;5.47;;;;;;;3.09;100.00;100047.69;4982674;28;20103;-82
2023/02/01 05:47:43;;;;;;;12.47;4.40;;;;;;;3.09;100.00;100052.91;4995338;28;20033;-82
2023/02/01 05:50:10;;;;;;;10.83;3.93;;;;;;;3.13;100.00;100042.50;4974315;28;20137;-82
2023/02/01 05:52:36;;;;;;;14.63;5.03;;;;;;;3.14;100.00;100039.00;4998754;28;20045;-81
2023/02/01 05:55:03;;;;;;;17.27;4.70;;;;;;;3.17;100.00;100036.38;4998897;28;20041;-83
2023/02/01 05:57:30;;;;;;;20.20;4.50;;;;;;;3.18;100.00;100038.97;4985219;28;20041;-83
2023/02/01 05:59:57;;;;;;;15.43;4.70;;;;;;;3.12;100.00;100031.19;4993103;28;20534;-82
2023/02/01 06:02:25;;;;;;;15.33;4.53;;;;;;;3.13;100.00;100019.00;4963895;28;20490;-83
2023/02/01 06:04:52;;;;;;;21.20;5.33;;;;;;;3.16;100.00;100021.59;5012253;28;20042;-83
2023/02/01 06:07:19;;;;;;;16.97;4.60;;;;;;;3.09;100.00;100023.34;4997452;28;20056;-83
2023/02/01 06:09:46;;;;;;;15.30;5.57;;;;;;;3.16;100.00;100025.06;4978487;28;20450;-83
2023/02/01 06:12:12;;;;;;;14.10;4.30;;;;;;;3.17;100.00;100025.94;4996555;28;20041;-83
2023/02/01 06:14:39;;;;;;;16.57;5.13;;;;;;;3.10;100.00;100019.84;4997433;28;20037;-81
2023/02/01 06:17:06;;;;;;;17.37;5.00;;;;;;;3.17;100.00;100018.97;4982030;28;20049;-81
2023/02/01 06:19:33;;;;;;;15.47;4.80;;;;;;;3.18;100.00;100010.28;4997795;28;20446;-82
2023/02/01 06:22:00;;;;;;;19.23;4.70;;;;;;;3.18;100.00;100027.69;4981696;28;20095;-81
2023/02/01 06:24:29;;;;;;;13.30;4.23;;;;;;;3.19;100.00;100026.81;4983127;28;20075;-81
2023/02/01 06:26:55;;;;;;;14.07;5.03;;;;;;;3.11;100.00;100021.59;4977894;28;20053;-82
2023/02/01 06:29:22;;;;;;;16.10;4.77;;;;;;;3.06;100.00;100024.22;4962272;28;20049;-82
2023/02/01 06:31:51;;;;;;;14.30;3.80;;;;;;;3.02;100.00;100013.75;4988541;28;20045;-82
2023/02/01 06:34:19;;;;;;;12.70;4.50;;;;;;;3.04;100.00;100009.44;5001491;28;20034;-82
2023/02/01 06:36:47;;;;;;;11.57;3.87;;;;;;;3.05;100.00;100011.19;4986614;28;20678;-82
2023/02/01 06:39:15;;;;;;;14.80;5.10;;;;;;;3.01;100.00;100022.47;5001998;28;20037;-82
2023/02/01 06:41:45;;;;;;;15.40;4.10;;;;;;;2.97;100.00;100018.13;5001559;28;20053;-82
2023/02/01 06:44:12;;;;;;;12.73;3.97;;;;;;;3.07;100.00;100025.09;4984315;28;20038;-83
2023/02/01 06:46:39;;;;;;;14.40;3.90;;;;;;;3.04;100.00;100017.25;4997748;28;20050;-84
2023/02/01 06:49:06;;;;;;;15.77;4.07;;;;;;;2.93;100.00;100018.97;4982145;28;20057;-85
2023/02/01 06:51:32;;;;;;;13.27;4.33;;;;;;;3.02;100.00;100011.16;4966647;28;20092;-84
2023/02/01 06:54:00;;;;;;;16.10;5.07;;;;;;;3.08;100.00;100005.94;4982276;28;20389;-84
2023/02/01 06:56:27;;;;;;;15.23;3.50;;;;;;;3.03;100.00;100015.53;4972922;28;20073;-83
2023/02/01 06:58:54;;;;;;;12.83;5.53;;;;;;;3.02;100.00;100011.16;4982242;28;20045;-84
2023/02/01 07:01:20;;;;;;;13.40;4.43;;;;;;;3.00;100.00;100028.56;4983153;28;20168;-84
2023/02/01 07:03:50;;;;;;;14.90;4.30;;;;;;;3.06;100.00;100029.44;4982482;28;20073;-84
2023/02/01 07:06:17;;;;;;;13.87;5.07;;;;;;;3.07;100.00;100022.47;4966375;28;20141;-83
2023/02/01 07:08:45;;;;;;;12.40;4.00;;;;;;;3.00;100.00;100020.72;4966217;28;20503;-87
2023/02/01 07:11:13;;;;;;;14.13;4.30;;;;;;;3.00;100.00;100019.00;4970560;28;20038;-85
2023/02/01 07:13:40;;;;;;;11.40;4.00;;;;;;;3.03;100.00;100015.53;5001728;28;20038;-84
2023/02/01 07:16:11;;;;;;;15.00;4.17;;;;;;;3.02;100.00;100004.19;4985707;28;20053;-86
2023/02/01 07:18:38;;;;;;;12.23;4.07;;;;;;;2.90;100.00;100004.22;4985721;28;20038;-85
2023/02/01 07:21:06;;;;;;;7.97;3.87;;;;;;;2.96;100.00;99996.38;4985356;28;20413;-84
2023/02/01 07:23:32;;;;;;;15.13;5.23;;;;;;;2.94;100.00;99992.88;4985073;28;20642;-84
2023/02/01 07:26:01;;;;;;;11.43;4.00;;;;;;;2.97;100.00;99995.50;5000900;28;20557;-85
2023/02/01 07:28:31;;;;;;;11.80;4.27;;;;;;;2.97;100.00;99992.03;4984669;28;20038;-83
2023/02/01 07:31:04;;;;;;;16.40;6.17;;;;;;;2.97;100.00;99999.88;4980773;28;20038;-83
2023/02/01 07:33:31;;;;;;;12.83;4.07;;;;;;;2.95;100.00;99996.41;5017216;28;20049;-83
2023/02/01 07:36:01;;;;;;;16.30;4.97;;;;;;;2.96;100.00;99999.00;5001907;28;20041;-83
2023/02/01 07:38:28;;;;;;;12.30;4.60;;;;;;;2.93;100.00;99995.50;4984871;28;20084;-86
2023/02/01 07:41:02;;;;;;;9.10;4.10;;;;;;;2.82;100.00;100001.59;4984887;28;20068;-83
2023/02/01 07:43:29;;;;;;;7.90;3.50;;;;;;;2.74;100.00;99992.91;4996316;28;20049;-84
2023/02/01 07:45:57;;;;;;;7.93;3.27;;;;;;;2.81;100.00;99993.78;4977757;28;20045;-85
2023/02/01 07:48:24;;;;;;;13.67;3.57;;;;;;;2.85;100.00;99986.81;4982507;28;20124;-86
2023/02/01 07:51:13;;;;;;;16.67;4.67;;;;;;;2.79;100.00;99985.09;4965303;28;20133;-87
2023/02/01 07:53:41;;;;;;;11.13;4.03;;;;;;;2.73;100.00;99988.56;4981247;28;20042;-85
2023/02/01 07:56:13;;;;;;;13.27;3.80;;;;;;;2.74;100.00;99982.47;4981306;28;20491;-87
2023/02/01 07:58:40;;;;;;;17.10;6.67;;;;;;;2.81;100.00;99984.22;4965206;28;20060;-87
2023/02/01 08:01:19;;;;;;;12.20;4.70;;;;;;;2.81;100.00;99983.34;4983978;28;20049;-86
2023/02/01 08:03:48;;;;;;;16.53;5.10;;;;;;;2.80;100.00;99982.47;4990300;28;20493;-86
2023/02/01 08:06:14;;;;;;;11.23;4.57;;;;;;;2.74;100.00;99974.63;4981404;28;20759;-87
2023/02/01 08:08:42;;;;;;;12.30;4.40;;;;;;;2.86;100.00;99978.09;4996847;28;20048;-86
2023/02/01 08:11:09;;;;;;;11.17;4.90;;;;;;;2.95;100.00;99985.97;4980684;28;20052;-86
2023/02/01 08:13:35;;;;;;;17.37;5.60;;;;;;;2.92;100.00;99988.56;4999964;28;20045;-81
2023/02/01 08:16:05;;;;;;;9.77;4.13;;;;;;;2.87;100.00;99979.88;4984440;28;20399;-82
2023/02/01 08:18:33;;;;;;;15.07;5.07;;;;;;;3.02;100.00;99980.72;4984565;28;20136;-82
2023/02/01 08:21:08;;;;;;;14.03;4.80;;;;;;;2.98;100.00;99992.03;5001261;28;20044;-82
2023/02/01 08:23:36;;;;;;;8.70;4.00;;;;;;;3.02;100.00;99983.31;4984901;28;20051;-81
2023/02/01 08:26:12;;;;;;;12.30;4.17;;;;;;;3.02;100.00;99990.28;4984522;28;20147;-82
2023/02/01 08:28:40;;;;;;;12.60;3.30;;;;;;;3.05;100.00;99990.28;4985681;28;20420;-81
2023/02/01 08:31:10;;;;;;;7.93;3.17;;;;;;;3.01;100.00;99983.31;4995026;28;20637;-81
2023/02/01 08:33:37;;;;;;;6.60;2.93;;;;;;;2.96;100.00;99987.69;4996109;28;20048;-81
2023/02/01 08:36:05;;;;;;;7.67;2.80;;;;;;;2.96;100.00;99996.38;4964748;28;20399;-81
2023/02/01 08:38:32;;;;;;;5.93;2.20;;;;;;;3.07;100.00;99991.16;4964629;28;20042;-81
2023/02/01 08:41:04;;;;;;;8.67;2.20;;;;;;;3.08;100.00;99998.97;4966619;28;20571;-81
2023/02/01 08:43:30;;;;;;;5.73;2.30;;;;;;;3.10;100.00;99997.22;4982518;28;20038;-82
2023/02/01 08:45:57;;;;;;;8.03;2.20;;;;;;;3.04;100.00;100002.47;4983124;28;20391;-81
2023/02/01 08:48:24;;;;;;;4.77;2.00;;;;;;;3.10;100.00;100001.56;4999675;28;20103;-82
2023/02/01 08:50:50;;;;;;;5.20;1.73;;;;;;;3.04;100.00;99991.16;4996271;28;20045;-81
2023/02/01 08:53:17;;;;;;;4.40;2.00;;;;;;;3.08;100.00;100004.19;4980538;28;20045;-82
2023/02/01 08:55:46;;;;;;;4.33;2.03;;;;;;;3.05;100.00;100004.22;4986693;28;20037;-82
2023/02/01 08:58:13;;;;;;;4.67;1.80;;;;;;;3.09;100.00;99994.63;4982955;28;20049;-81
2023/02/01 09:00:40;;;;;;;3.33;1.60;;;;;;;3.07;100.00;99999.00;4993926;28;20038;-81
2023/02/01 09:03:10;;;;;;;6.07;2.60;;;;;;;2.95;100.00;100006.84;4979282;28;20042;-82
2023/02/01 09:05:37;;;;;;;5.50;2.37;;;;;;;3.01;100.00;100010.28;4997698;28;20132;-82
2023/02/01 09:08:15;;;;;;;3.97;1.67;;;;;;;3.00;100.00;100012.91;4997648;28;20046;-81
2023/02/01 09:10:42;;;;;;;5.80;2.70;;;;;;;3.06;100.00;100015.50;4977248;28;20047;-82
2023/02/01 09:13:09;;;;;;;4.13;1.70;;;;;;;3.06;100.00;100011.16;4991966;28;20042;-82
2023/02/01 09:15:37;;;;;;;4.33;2.00;;;;;;;3.07;100.00;100018.13;4962253;28;20042;-82
2023/02/01 09:18:03;;;;;;;4.00;2.03;;;;;;;2.99;100.00;100014.63;4994687;28;20038;-81
2023/02/01 09:20:30;;;;;;;3.43;1.50;;;;;;;3.09;100.00;100015.50;4963261;28;20104;-82
2023/02/01 09:22:57;;;;;;;4.07;1.30;;;;;;;3.10;100.00;100014.63;4979127;28;20049;-81
2023/02/01 09:25:24;;;;;;;2.57;1.27;;;;;;;3.00;100.00;100016.38;4979802;28;20034;-81
2023/02/01 09:27:50;;;;;;;3.03;1.50;;;;;;;3.06;100.00;100008.56;4995467;28;20037;-81
2023/02/01 09:30:17;;;;;;;1.77;1.10;;;;;;;3.11;100.00;100021.59;4963832;28;20041;-82
2023/02/01 09:32:44;;;;;;;4.10;1.63;;;;;;;3.15;100.00;100018.13;4964301;28;20046;-81
2023/02/01 09:35:11;;;;;;;6.13;3.10;;;;;;;3.23;100.00;100024.19;4963454;28;20049;-81
2023/02/01 09:37:37;;;;;;;4.77;2.13;;;;;;;3.20;100.00;100019.00;4979103;28;20096;-82
2023/02/01 09:40:05;;;;;;;4.40;1.50;;;;;;;3.23;100.00;100012.91;4964148;28;20045;-81
2023/02/01 09:43:09;;;;;;;4.60;1.40;;;;;;;3.29;100.00;100025.94;4996566;28;20054;-82
2023/02/01 09:45:48;;;;;;;3.00;1.30;;;;;;;3.31;100.00;100030.28;4994050;28;20053;-82
2023/02/01 09:48:21;;;;;;;3.47;1.80;;;;;;;3.25;100.00;100038.13;4996951;28;20045;-82
2023/02/01 09:50:55;;;;;;;2.43;1.20;;;;;;;3.31;100.00;100032.91;4986570;28;20052;-81
2023/02/01 09:53:27;;;;;;;;;;;;;;;3.38;100.00;100039.00;4979672;28;20415;-83
2023/02/01 09:56:03;;;;;;;5.30;2.63;;;;;;;3.36;100.00;100045.94;4997866;28;20007;-82
2023/02/01 09:58:34;;;;;;;4.63;1.47;;;;;;;3.40;100.00;100045.06;4978411;28;20490;-81
2023/02/01 10:01:04;;;;;;;3.37;1.50;;;;;;;3.45;100.00;100042.44;4981208;28;20045;-81
2023/02/01 10:03:33;;;;;;;4.93;1.40;;;;;;;3.37;100.00;100045.97;4981345;28;20079;-81
2023/02/01 10:06:48;;;;;;;3.73;1.77;;;;;;;3.43;100.00;100041.56;4964322;28;20049;-81
2023/02/01 10:09:34;;;;;;;5.32;1.92;;;;;;;3.47;100.00;100049.41;4944543;28;20051;-81
2023/02/01 10:12:32;;;;;;;3.33;1.43;;;;;;;3.45;100.00;100056.41;4982068;28;20056;-81
2023/02/01 10:15:01;;;;;;;5.53;1.67;;;;;;;3.45;100.00;100052.88;4996005;28;20132;-82
2023/02/01 10:17:41;;;;;;;7.87;1.70;;;;;;;3.37;100.00;100053.78;4996466;28;20045;-81
2023/02/01 10:20:27;;;;;;;4.43;2.23;;;;;;;3.38;100.00;100052.91;4997366;28;20041;-80
2023/02/01 10:23:23;;;;;;;6.60;2.77;;;;;;;3.43;100.00;100049.41;4996285;28;20414;-81
2023/02/01 10:26:12;;;;;;;4.33;1.50;;;;;;;3.45;100.00;100045.03;4978179;28;20093;-81
2023/02/01 10:28:39;;;;;;;4.90;2.60;;;;;;;3.50;100.00;100036.34;4975894;28;20049;-81
2023/02/01 10:31:08;;;;;;;5.33;2.77;;;;;;;3.56;100.00;100045.91;5010339;28;20101;-81
2023/02/01 10:33:49;;;;;;;4.43;1.90;;;;;;;3.62;100.00;100041.56;4980582;28;20046;-82
2023/02/01 10:36:19;;;;;;;6.67;2.10;;;;;;;3.68;100.00;100028.47;4981919;28;20136;-82
2023/02/01 10:38:46;;;;;;;5.10;1.67;;;;;;;3.74;100.00;100047.63;5014419;28;20049;-80
2023/02/01 10:41:16;;;;;;;3.77;1.90;;;;;;;3.76;100.00;100033.66;5000083;28;20045;-80
2023/02/01 10:43:48;;;;;;;3.93;2.10;;;;;;;3.80;100.00;100043.25;4982793;28;20095;-80
2023/02/01 10:46:16;;;;;;;5.97;2.87;;;;;;;3.88;100.00;100033.66;4997755;28;20076;-80
2023/02/01 10:48:43;;;;;;;6.77;2.27;;;;;;;3.85;100.00;100038.00;5013997;28;20542;-80
2023/02/01 10:51:21;;;;;;;3.80;1.80;;;;;;;3.91;100.00;100030.16;4976657;28;20046;-81
2023/02/01 10:53:56;;;;;;;3.23;1.87;;;;;;;3.98;100.00;100028.38;4989725;28;20046;-80
2023/02/01 10:56:25;;;;;;;4.13;1.93;;;;;;;4.00;100.00;100027.50;4996990;28;20042;-80
2023/02/01 10:59:03;;;;;;;10.17;4.23;;;;;;;4.04;100.00;100029.22;4976346;28;20065;-81
2023/02/01 11:01:40;;;;;;;8.10;3.80;;;;;;;4.11;100.00;100007.41;4995206;28;20487;-81
2023/02/01 11:04:18;;;;;;;6.20;2.33;;;;;;;4.16;100.00;100008.25;4982490;28;20164;-81
2023/02/01 11:07:13;;;;;;;4.37;1.90;;;;;;;4.34;100.00;100003.81;4982238;28;20483;-81
2023/02/01 11:09:40;;;;;;;3.05;1.70;;;;;;;4.34;100.00;100009.91;4976888;28;20041;-82
2023/02/01 11:12:26;;;;;;;6.57;2.50;;;;;;;4.41;100.00;100002.88;4997071;28;20056;-81
2023/02/01 11:14:58;;;;;;;6.10;2.37;;;;;;;4.42;100.00;100007.25;4997430;28;20509;-81
2023/02/01 11:17:38;;;;;;;5.97;1.67;;;;;;;4.52;100.00;100001.94;4979348;28;20053;-81
2023/02/01 11:20:18;;;;;;;7.20;1.90;;;;;;;4.55;100.00;100006.31;4997630;28;20095;-82
2023/02/01 11:22:47;;;;;;;11.43;2.80;;;;;;;4.60;100.00;99994.03;4984107;28;20048;-82
2023/02/01 11:25:16;;;;;;;7.40;1.83;;;;;;;4.63;100.00;99995.78;5000324;28;20040;-82
2023/02/01 11:27:43;;;;;;;5.80;1.90;;;;;;;4.62;100.00;99992.28;4991622;28;20045;-81
2023/02/01 11:30:36;;;;;;;7.60;2.23;;;;;;;4.63;100.00;99990.56;4986731;28;20068;-81
2023/02/01 11:33:05;;;;;;;6.83;2.80;;;;;;;4.59;100.00;99980.97;5001735;28;20425;-81
2023/02/01 11:35:36;;;;;;;8.83;2.80;;;;;;;4.61;100.00;99977.47;4981832;28;20097;-81
2023/02/01 11:38:18;;;;;;;10.33;3.80;;;;;;;4.66;100.00;99986.16;4986486;28;20048;-82
2023/02/01 11:40:45;;;;;;;7.93;2.87;;;;;;;4.70;100.00;99976.53;4999958;28;20132;-84
2023/02/01 11:43:28;;;;;;;6.10;2.67;;;;;;;4.57;100.00;99978.38;4983810;28;20046;-83
2023/02/01 11:45:56;;;;;;;12.13;3.87;;;;;;;4.68;100.00;99973.06;4979440;28;20064;-81
2023/02/01 11:48:25;;;;;;;7.50;4.07;;;;;;;4.74;100.00;99978.25;4987996;28;20259;-82
2023/02/01 11:51:07;;;;;;;5.33;2.60;;;;;;;4.83;100.00;99982.53;5016224;28;20042;-81
2023/02/01 11:53:56;;;;;;;6.73;2.50;;;;;;;4.84;100.00;99973.81;5015509;28;20060;-82
2023/02/01 11:56:42;;;;;;;8.27;3.30;;;;;;;4.96;100.00;99968.44;4997201;28;20034;-82
2023/02/01 11:59:12;;;;;;;9.13;3.50;;;;;;;4.97;100.00;99981.56;4984530;28;20057;-83
2023/02/01 12:01:51;;;;;;;7.60;3.50;;;;;;;4.93;100.00;99974.59;4983704;28;20042;-82
2023/02/01 12:04:40;;;;;;;13.17;2.87;;;;;;;4.95;100.00;99980.69;4984839;28;20104;-82